Time;durP1;ratioP1;P1;durP2;ratioP2;P2;SDS_P1;SDS_P2;PMS_P1;PMS_P2;Temp;Humidity;BMP_temperature;BMP_pressure;BME280_temperature;BME280_humidity;BME280_pressure;Samples;Min_cycle;Max_cycle;Signal;HPM_P1;HPM_P2
2022/03/12 00:00:27;;;;;;;12.00;6.88;;;6.70;45.50;;;;;;5052559;28;20094;-69
2022/03/12 00:02:53;;;;;;;9.93;6.30;;;6.70;45.30;;;;;;5052519;28;20321;-69
2022/03/12 00:05:19;;;;;;;12.50;7.40;;;6.70;45.60;;;;;;5050949;28;20429;-69
2022/03/12 00:07:46;;;;;;;11.32;7.13;;;6.70;45.50;;;;;;5052435;28;20048;-69
2022/03/12 00:10:16;;;;;;;10.27;6.57;;;6.70;45.50;;;;;;5052312;28;20553;-69
2022/03/12 00:12:42;;;;;;;9.25;5.97;;;6.70;45.60;;;;;;5051217;28;20170;-69
2022/03/12 00:15:10;;;;;;;10.40;6.32;;;6.70;45.80;;;;;;5052267;28;20037;-69
2022/03/12 00:17:37;;;;;;;9.18;6.53;;;6.70;45.90;;;;;;5052089;28;20040;-69
2022/03/12 00:20:12;;;;;;;11.98;6.80;;;6.60;45.70;;;;;;5052016;28;20055;-69
2022/03/12 00:22:47;;;;;;;11.95;6.55;;;6.70;45.60;;;;;;5052168;28;20052;-69
2022/03/12 00:25:18;;;;;;;12.55;6.05;;;6.70;45.70;;;;;;5052470;28;20048;-69
2022/03/12 00:27:45;;;;;;;14.45;6.13;;;6.60;45.60;;;;;;5052032;28;20032;-69
2022/03/12 00:30:15;;;;;;;11.50;7.07;;;6.60;45.70;;;;;;5051146;28;20045;-69
2022/03/12 00:32:41;;;;;;;11.30;6.97;;;6.60;45.80;;;;;;5053332;28;20044;-69
2022/03/12 00:35:10;;;;;;;11.43;7.07;;;6.60;45.90;;;;;;5053260;28;20045;-69
2022/03/12 00:37:37;;;;;;;11.40;6.93;;;6.60;45.90;;;;;;5053041;28;20083;-69
2022/03/12 00:40:04;;;;;;;11.65;6.97;;;6.60;45.80;;;;;;5053173;28;20481;-69
2022/03/12 00:42:31;;;;;;;13.05;6.40;;;6.60;45.70;;;;;;5052806;28;20141;-69
2022/03/12 00:44:57;;;;;;;13.43;7.00;;;6.60;45.70;;;;;;5052176;28;20079;-69
2022/03/12 00:47:23;;;;;;;12.02;7.18;;;6.60;45.60;;;;;;5050266;28;20049;-69
2022/03/12 00:49:49;;;;;;;10.90;6.55;;;6.60;45.50;;;;;;5052094;28;20567;-69
2022/03/12 00:52:16;;;;;;;13.90;7.55;;;6.60;46.00;;;;;;5051826;28;20063;-69
2022/03/12 00:54:42;;;;;;;12.98;7.18;;;6.50;46.10;;;;;;5051955;28;20041;-69
2022/03/12 00:57:10;;;;;;;12.35;6.75;;;6.50;46.10;;;;;;5051350;28;20567;-69
2022/03/12 00:59:38;;;;;;;9.68;7.22;;;6.50;46.40;;;;;;5051535;28;20113;-69
2022/03/12 01:02:03;;;;;;;9.68;6.43;;;6.40;46.20;;;;;;5051775;28;20041;-69
2022/03/12 01:04:29;;;;;;;9.68;6.75;;;6.40;46.30;;;;;;5051896;28;20391;-68
2022/03/12 01:06:54;;;;;;;10.45;6.32;;;6.50;46.30;;;;;;5051159;28;20545;-69
2022/03/12 01:09:20;;;;;;;9.20;6.75;;;6.50;46.10;;;;;;5051610;28;20037;-69
2022/03/12 01:11:45;;;;;;;11.68;6.88;;;6.50;46.30;;;;;;5051489;28;20050;-69
2022/03/12 01:14:11;;;;;;;11.30;6.32;;;6.40;46.50;;;;;;5051237;28;20029;-69
2022/03/12 01:16:37;;;;;;;12.35;7.97;;;6.40;46.60;;;;;;5051383;28;20162;-69
2022/03/12 01:19:02;;;;;;;12.15;7.10;;;6.40;46.50;;;;;;5051616;28;20045;-69
2022/03/12 01:21:29;;;;;;;12.07;6.68;;;6.40;46.50;;;;;;5051338;28;20044;-69
2022/03/12 01:23:55;;;;;;;9.95;6.78;;;6.40;46.40;;;;;;5051543;28;20123;-69
2022/03/12 01:26:22;;;;;;;12.85;7.65;;;6.40;46.50;;;;;;5050099;28;20127;-69
2022/03/12 01:28:48;;;;;;;10.55;7.20;;;6.40;46.60;;;;;;5051406;28;20079;-69
2022/03/12 01:31:14;;;;;;;12.18;7.80;;;6.40;46.20;;;;;;5051653;28;20033;-69
2022/03/12 01:33:40;;;;;;;13.23;8.00;;;6.40;46.30;;;;;;5051594;28;20048;-69
2022/03/12 01:36:06;;;;;;;13.23;7.43;;;6.40;46.60;;;;;;5051304;28;20116;-68
2022/03/12 01:38:48;;;;;;;10.05;6.45;;;6.40;46.50;;;;;;5050147;28;20472;-69
2022/03/12 01:41:19;;;;;;;10.65;6.50;;;6.40;46.60;;;;;;5049847;28;20051;-69
2022/03/12 01:43:45;;;;;;;11.80;7.43;;;6.30;46.80;;;;;;5050086;28;20045;-69
2022/03/12 01:46:11;;;;;;;12.50;7.53;;;6.30;46.90;;;;;;5049839;28;20048;-69
2022/03/12 01:48:43;;;;;;;15.15;7.85;;;6.30;46.90;;;;;;5049841;28;20502;-69
2022/03/12 01:51:09;;;;;;;10.40;7.68;;;6.30;47.00;;;;;;5049877;28;20453;-69
2022/03/12 01:53:35;;;;;;;11.40;6.95;;;6.20;47.10;;;;;;5051065;28;20036;-69
2022/03/12 01:56:01;;;;;;;13.57;7.88;;;6.30;47.10;;;;;;5049497;28;20044;-69
2022/03/12 01:58:26;;;;;;;13.63;6.45;;;6.20;47.30;;;;;;5049837;28;20045;-69
2022/03/12 02:00:53;;;;;;;10.70;6.57;;;6.20;47.30;;;;;;5051201;28;20457;-69
2022/03/12 02:03:23;;;;;;;12.75;7.38;;;6.20;47.50;;;;;;5051034;28;20398;-69
2022/03/12 02:05:50;;;;;;;11.82;7.70;;;6.20;47.30;;;;;;5049490;28;20059;-69
2022/03/12 02:08:16;;;;;;;10.45;6.93;;;6.20;47.50;;;;;;5049597;28;20072;-69
2022/03/12 02:10:43;;;;;;;12.27;7.55;;;6.20;47.80;;;;;;5052132;28;20571;-69
2022/03/12 02:13:09;;;;;;;14.60;7.22;;;6.20;47.80;;;;;;5053186;28;20087;-69
2022/03/12 02:15:35;;;;;;;11.93;7.43;;;6.20;47.80;;;;;;5054335;28;20033;-69
2022/03/12 02:18:01;;;;;;;13.73;7.13;;;6.20;48.10;;;;;;5054556;28;20056;-69
2022/03/12 02:20:27;;;;;;;9.57;6.82;;;6.10;48.00;;;;;;5054459;28;20040;-69
2022/03/12 02:22:53;;;;;;;12.18;6.63;;;6.20;48.00;;;;;;5052798;28;20676;-69
2022/03/12 02:25:33;;;;;;;13.18;7.65;;;6.20;47.80;;;;;;5054289;28;20451;-69
2022/03/12 02:28:00;;;;;;;12.18;7.47;;;6.20;47.80;;;;;;5052889;28;20055;-69
2022/03/12 02:30:38;;;;;;;12.13;7.18;;;6.10;47.70;;;;;;5053255;28;20045;-69
2022/03/12 02:33:04;;;;;;;10.65;7.28;;;6.10;47.70;;;;;;5054131;28;20036;-69
2022/03/12 02:35:37;;;;;;;14.25;7.65;;;6.20;47.90;;;;;;5035894;28;20139;-69
2022/03/12 02:38:07;;;;;;;11.85;8.10;;;6.20;47.80;;;;;;5054355;28;20045;-69
2022/03/12 02:40:34;;;;;;;13.98;6.97;;;6.10;47.70;;;;;;5052800;28;20049;-69
2022/03/12 02:43:00;;;;;;;14.60;7.40;;;6.20;47.90;;;;;;5052699;28;20041;-69
2022/03/12 02:45:28;;;;;;;11.77;7.40;;;6.10;47.80;;;;;;5052514;28;20071;-69
2022/03/12 02:47:55;;;;;;;9.95;6.78;;;6.10;47.80;;;;;;5053689;28;20094;-69
2022/03/12 02:50:22;;;;;;;13.07;7.15;;;6.10;47.70;;;;;;5054302;28;20119;-69
2022/03/12 02:52:48;;;;;;;14.77;7.45;;;6.10;47.90;;;;;;5053950;28;20041;-69
2022/03/12 02:55:18;;;;;;;12.73;6.82;;;6.10;48.00;;;;;;5053757;28;20087;-69
2022/03/12 02:57:46;;;;;;;9.60;7.00;;;6.10;48.20;;;;;;5053666;28;20045;-69
2022/03/12 03:00:15;;;;;;;10.68;7.60;;;6.10;48.30;;;;;;5053539;28;20410;-69
2022/03/12 03:02:41;;;;;;;13.95;7.07;;;6.10;48.00;;;;;;5053781;28;20033;-69
2022/03/12 03:05:13;;;;;;;12.63;7.68;;;6.00;48.20;;;;;;5053723;28;20064;-70
2022/03/12 03:07:39;;;;;;;12.70;7.78;;;6.00;48.40;;;;;;5052039;28;20052;-69
2022/03/12 03:10:05;;;;;;;9.80;6.95;;;6.00;48.20;;;;;;5053572;28;20033;-69
2022/03/12 03:12:31;;;;;;;10.73;6.95;;;6.00;48.20;;;;;;5052047;28;20147;-69
2022/03/12 03:14:57;;;;;;;10.57;6.90;;;6.00;48.40;;;;;;5053275;28;20029;-69
2022/03/12 03:17:25;;;;;;;13.52;7.68;;;6.00;48.50;;;;;;5053246;28;20036;-69
2022/03/12 03:19:51;;;;;;;11.02;6.63;;;5.90;48.80;;;;;;5052262;28;20041;-69
2022/03/12 03:22:17;;;;;;;11.93;6.57;;;5.90;48.80;;;;;;5051929;28;20084;-69
2022/03/12 03:24:43;;;;;;;10.65;6.88;;;5.90;48.90;;;;;;5035407;28;20072;-69
2022/03/12 03:27:08;;;;;;;10.23;6.90;;;5.90;48.90;;;;;;5053229;28;20033;-69
2022/03/12 03:29:34;;;;;;;16.08;6.72;;;5.90;48.90;;;;;;5051753;28;20039;-69
2022/03/12 03:32:01;;;;;;;9.00;6.72;;;5.90;49.00;;;;;;5051818;28;20037;-69
2022/03/12 03:34:28;;;;;;;10.32;6.55;;;5.90;49.00;;;;;;5052105;28;20045;-69
2022/03/12 03:36:55;;;;;;;12.55;7.78;;;5.90;48.90;;;;;;5051677;28;20037;-69
2022/03/12 03:39:20;;;;;;;9.93;5.85;;;5.90;49.00;;;;;;5053054;28;20079;-68
2022/03/12 03:41:47;;;;;;;10.77;7.45;;;5.90;49.00;;;;;;5052814;28;20040;-69
2022/03/12 03:44:13;;;;;;;9.60;7.05;;;5.90;49.10;;;;;;5052806;28;20484;-69
2022/03/12 03:46:39;;;;;;;10.90;6.72;;;5.90;49.00;;;;;;5052619;28;20170;-69
2022/03/12 03:49:05;;;;;;;11.40;6.93;;;5.90;49.90;;;;;;5052875;28;20052;-69
2022/03/12 03:51:37;;;;;;;11.18;7.00;;;5.90;49.30;;;;;;5051367;28;20048;-69
2022/03/12 03:54:04;;;;;;;11.60;7.47;;;5.90;49.40;;;;;;5052757;28;20045;-69
2022/03/12 03:56:30;;;;;;;11.65;7.75;;;5.90;49.50;;;;;;5052191;28;20112;-69
2022/03/12 03:58:55;;;;;;;11.77;6.88;;;5.80;49.40;;;;;;5052481;28;20112;-69
2022/03/12 04:01:22;;;;;;;11.48;7.80;;;5.80;49.50;;;;;;5052389;28;20124;-69
2022/03/12 04:03:48;;;;;;;13.50;7.53;;;5.80;50.20;;;;;;5052611;28;20048;-70
2022/03/12 04:06:22;;;;;;;11.05;6.75;;;5.80;49.40;;;;;;5050955;28;20131;-69
2022/03/12 04:08:48;;;;;;;11.93;7.13;;;5.80;49.50;;;;;;5052577;28;20044;-69
2022/03/12 04:11:19;;;;;;;14.23;7.50;;;5.80;49.30;;;;;;5052137;28;20477;-69
2022/03/12 04:13:46;;;;;;;14.70;8.48;;;5.80;49.30;;;;;;5052321;28;20041;-69
2022/03/12 04:16:13;;;;;;;11.35;7.40;;;5.70;49.60;;;;;;5050957;28;20191;-69
2022/03/12 04:18:39;;;;;;;12.57;8.00;;;5.70;49.60;;;;;;5051220;28;20052;-69
2022/03/12 04:21:06;;;;;;;12.05;6.38;;;5.70;49.60;;;;;;5051984;28;20041;-69
2022/03/12 04:23:32;;;;;;;12.40;7.45;;;5.70;49.60;;;;;;5073625;22;20415;-72
2022/03/12 04:25:59;;;;;;;10.85;6.93;;;5.70;49.50;;;;;;5049869;28;20045;-73
2022/03/12 04:28:32;;;;;;;9.73;6.68;;;5.70;49.50;;;;;;5051992;28;20040;-72
2022/03/12 04:30:58;;;;;;;13.93;6.68;;;5.70;49.60;;;;;;5050920;28;20041;-72
2022/03/12 04:33:23;;;;;;;12.23;6.65;;;5.60;49.80;;;;;;5051689;28;20040;-73
2022/03/12 04:35:50;;;;;;;13.32;7.20;;;5.60;50.10;;;;;;5051587;28;20095;-72
2022/03/12 04:38:16;;;;;;;10.10;7.18;;;5.50;50.10;;;;;;5051774;28;20082;-73
2022/03/12 04:40:46;;;;;;;9.68;6.32;;;5.50;50.20;;;;;;5051969;28;20036;-73
2022/03/12 04:43:12;;;;;;;9.73;6.63;;;5.50;50.30;;;;;;5050510;28;20033;-72
2022/03/12 04:45:39;;;;;;;10.23;6.20;;;5.50;50.20;;;;;;5051703;28;20044;-72
2022/03/12 04:48:06;;;;;;;10.63;6.55;;;5.50;50.30;;;;;;5051764;28;20052;-72
2022/03/12 04:50:32;;;;;;;13.57;7.38;;;5.50;50.20;;;;;;5050543;28;20064;-73
2022/03/12 04:52:59;;;;;;;9.48;6.93;;;5.50;49.90;;;;;;5051574;28;20068;-73
2022/03/12 04:55:27;;;;;;;10.57;6.13;;;5.50;50.10;;;;;;5050121;28;20119;-73
2022/03/12 04:57:53;;;;;;;9.35;5.47;;;5.40;50.10;;;;;;5050626;28;20032;-73
2022/03/12 05:00:27;;;;;;;10.43;5.82;;;5.40;50.20;;;;;;5051701;28;20083;-73
2022/03/12 05:02:55;;;;;;;11.80;6.53;;;5.40;50.20;;;;;;5050390;28;20603;-73
2022/03/12 05:05:21;;;;;;;11.60;6.90;;;5.40;50.40;;;;;;5049957;28;20043;-72
2022/03/12 05:07:47;;;;;;;10.43;6.20;;;5.30;50.30;;;;;;5051687;28;20065;-73
2022/03/12 05:10:17;;;;;;;10.27;6.55;;;5.30;50.10;;;;;;5051665;28;20060;-73
2022/03/12 05:12:43;;;;;;;12.25;7.00;;;5.30;50.20;;;;;;5050264;28;20091;-73
2022/03/12 05:15:14;;;;;;;13.85;6.60;;;5.30;50.30;;;;;;5050472;28;20438;-73
2022/03/12 05:17:44;;;;;;;8.80;6.32;;;5.20;50.30;;;;;;5050265;28;20571;-75
2022/03/12 05:20:11;;;;;;;10.75;6.75;;;5.30;50.40;;;;;;5050205;28;20509;-72
2022/03/12 05:22:37;;;;;;;7.90;5.72;;;5.30;50.40;;;;;;5050040;28;20052;-75
2022/03/12 05:25:03;;;;;;;15.43;7.00;;;5.20;50.30;;;;;;5050077;28;20041;-75
2022/03/12 05:27:29;;;;;;;10.25;6.07;;;5.20;50.30;;;;;;5049776;28;20048;-75
2022/03/12 05:29:55;;;;;;;12.15;6.05;;;5.20;50.30;;;;;;5050383;28;20414;-72
2022/03/12 05:32:21;;;;;;;12.65;6.85;;;5.20;50.20;;;;;;5049888;28;20509;-72
2022/03/12 05:34:47;;;;;;;10.27;6.40;;;5.10;50.50;;;;;;5050046;28;20049;-72
2022/03/12 05:37:12;;;;;;;11.25;6.20;;;5.10;51.40;;;;;;5050071;28;20052;-72
2022/03/12 05:39:38;;;;;;;12.23;6.72;;;5.10;50.90;;;;;;5050258;28;20075;-72
2022/03/12 05:42:05;;;;;;;10.65;6.60;;;5.00;51.00;;;;;;5049858;28;20047;-72
2022/03/12 05:44:32;;;;;;;16.05;7.07;;;5.00;51.20;;;;;;5050769;28;20044;-73
2022/03/12 05:46:58;;;;;;;16.45;6.57;;;4.90;51.40;;;;;;5053209;28;20076;-72
2022/03/12 05:49:24;;;;;;;11.20;6.35;;;4.90;51.50;;;;;;5053982;28;20637;-72
2022/03/12 05:51:49;;;;;;;13.48;6.35;;;4.90;51.80;;;;;;5053887;28;20131;-75
2022/03/12 05:54:15;;;;;;;11.57;6.85;;;4.90;52.10;;;;;;5054820;28;20041;-75
2022/03/12 05:56:41;;;;;;;8.80;5.78;;;4.80;52.30;;;;;;5054656;28;20041;-75
2022/03/12 05:59:08;;;;;;;10.27;6.82;;;4.80;52.40;;;;;;5053615;28;20095;-75
2022/03/12 06:01:34;;;;;;;11.70;6.55;;;4.80;52.40;;;;;;5054552;28;20080;-73
2022/03/12 06:04:00;;;;;;;12.60;7.00;;;4.80;52.40;;;;;;5054804;28;20084;-72
2022/03/12 06:06:30;;;;;;;8.25;5.88;;;4.80;52.60;;;;;;5053081;28;20077;-72
2022/03/12 06:08:57;;;;;;;13.65;6.38;;;4.80;52.70;;;;;;5054793;28;20041;-73
2022/03/12 06:11:25;;;;;;;9.55;6.25;;;4.80;53.00;;;;;;5054645;28;20040;-73
2022/03/12 06:14:00;;;;;;;10.05;7.25;;;4.70;53.20;;;;;;5053397;28;20037;-72
2022/03/12 06:16:26;;;;;;;10.35;6.70;;;4.70;53.10;;;;;;5054468;28;20056;-72
2022/03/12 06:18:52;;;;;;;9.48;6.10;;;4.70;53.40;;;;;;5053427;28;20041;-72
2022/03/12 06:21:18;;;;;;;13.95;6.90;;;4.70;53.30;;;;;;5054398;28;20033;-72
2022/03/12 06:23:44;;;;;;;10.32;6.55;;;4.60;53.20;;;;;;5052913;28;20072;-72
2022/03/12 06:26:14;;;;;;;11.18;5.57;;;4.60;53.20;;;;;;5052774;28;20040;-72
2022/03/12 06:28:40;;;;;;;10.55;5.95;;;4.60;53.80;;;;;;5054070;28;20119;-72
2022/03/12 06:31:06;;;;;;;8.70;6.07;;;4.60;53.30;;;;;;5036305;28;20047;-72
2022/03/12 06:33:32;;;;;;;11.00;6.85;;;4.60;53.20;;;;;;5053103;28;20124;-73
2022/03/12 06:35:59;;;;;;;11.40;6.20;;;4.70;53.10;;;;;;5052549;28;20581;-72
2022/03/12 06:38:26;;;;;;;11.88;6.15;;;4.70;53.00;;;;;;5052697;28;20048;-73
2022/03/12 06:40:54;;;;;;;9.75;6.00;;;4.70;52.90;;;;;;5052787;28;20041;-72
2022/03/12 06:43:19;;;;;;;12.55;5.65;;;4.80;52.70;;;;;;5052802;28;20041;-72
2022/03/12 06:45:49;;;;;;;13.43;5.97;;;4.80;53.00;;;;;;5052587;28;20043;-72
2022/03/12 06:48:16;;;;;;;11.63;6.78;;;4.80;53.00;;;;;;5053874;28;20451;-72
2022/03/12 06:50:43;;;;;;;11.70;6.38;;;4.80;53.10;;;;;;5052562;28;20079;-75
2022/03/12 06:53:08;;;;;;;10.38;6.10;;;4.90;53.10;;;;;;5052444;28;20091;-75
2022/03/12 06:55:34;;;;;;;9.15;5.85;;;4.90;52.90;;;;;;5035276;28;20033;-75
2022/03/12 06:58:00;;;;;;;9.85;6.18;;;4.90;53.00;;;;;;5052387;28;20127;-75
2022/03/12 07:00:29;;;;;;;10.80;7.95;;;4.90;52.70;;;;;;5052382;28;20083;-75
2022/03/12 07:02:55;;;;;;;10.25;6.03;;;5.00;52.70;;;;;;5051870;28;20083;-75
2022/03/12 07:05:22;;;;;;;10.88;6.80;;;5.00;52.40;;;;;;5051494;28;20068;-75
2022/03/12 07:07:49;;;;;;;8.68;6.03;;;5.10;52.40;;;;;;5035353;28;20044;-75
2022/03/12 07:10:15;;;;;;;12.23;6.30;;;5.10;52.20;;;;;;5053230;28;20033;-73
2022/03/12 07:12:44;;;;;;;17.67;9.07;;;5.20;52.50;;;;;;5053115;28;20089;-73
2022/03/12 07:15:11;;;;;;;17.45;6.63;;;5.20;53.40;;;;;;5053363;28;20041;-73
2022/03/12 07:17:37;;;;;;;12.02;6.10;;;5.20;52.80;;;;;;5053308;28;20051;-72
2022/03/12 07:20:04;;;;;;;9.98;6.95;;;5.30;52.90;;;;;;5051961;28;20044;-75
2022/03/12 07:22:30;;;;;;;11.48;5.85;;;5.30;52.60;;;;;;5053124;28;20044;-75
2022/03/12 07:24:56;;;;;;;9.10;6.63;;;5.40;53.10;;;;;;5053013;28;20095;-75
2022/03/12 07:27:21;;;;;;;12.15;6.75;;;5.40;52.70;;;;;;5052751;28;20049;-76
2022/03/12 07:29:47;;;;;;;11.00;6.32;;;5.50;52.70;;;;;;5053057;28;20120;-73
2022/03/12 07:32:13;;;;;;;8.88;6.00;;;5.60;52.70;;;;;;5050833;28;20037;-72
2022/03/12 07:34:38;;;;;;;10.60;6.32;;;5.60;52.60;;;;;;5051025;28;20075;-73
2022/03/12 07:37:04;;;;;;;12.35;6.72;;;5.70;52.60;;;;;;5052171;28;20124;-72
2022/03/12 07:39:29;;;;;;;10.30;6.70;;;5.70;52.60;;;;;;5051329;28;20041;-72
2022/03/12 07:41:55;;;;;;;12.48;6.35;;;5.70;52.70;;;;;;5052537;28;20037;-73
2022/03/12 07:44:23;;;;;;;10.77;6.25;;;5.70;52.50;;;;;;5034906;28;20123;-73
2022/03/12 07:46:48;;;;;;;11.65;7.20;;;5.80;52.80;;;;;;5034707;28;20457;-72
2022/03/12 07:49:14;;;;;;;11.93;6.53;;;6.00;52.80;;;;;;5051251;28;20120;-73
2022/03/12 07:51:43;;;;;;;16.52;7.68;;;6.10;52.80;;;;;;5051511;28;20047;-73
2022/03/12 07:54:09;;;;;;;11.15;6.55;;;6.30;52.20;;;;;;5051216;28;20112;-71
2022/03/12 07:56:35;;;;;;;9.95;6.53;;;6.60;52.20;;;;;;5052361;28;20056;-73
2022/03/12 07:59:01;;;;;;;11.75;6.80;;;6.80;51.70;;;;;;5051189;28;20041;-72
2022/03/12 08:01:27;;;;;;;10.90;7.38;;;7.10;51.30;;;;;;5052553;28;20044;-73
2022/03/12 08:03:53;;;;;;;8.65;6.07;;;7.40;51.10;;;;;;5051126;28;20406;-73
2022/03/12 08:06:20;;;;;;;10.98;6.25;;;7.60;50.50;;;;;;5050171;28;20398;-72
2022/03/12 08:08:45;;;;;;;16.73;7.60;;;7.80;49.80;;;;;;5049760;28;20056;-72
2022/03/12 08:11:28;;;;;;;12.70;6.38;;;8.00;49.60;;;;;;5052403;28;20128;-72
2022/03/12 08:14:01;;;;;;;13.73;7.60;;;8.10;49.40;;;;;;5050890;28;20041;-72
2022/03/12 08:16:31;;;;;;;13.20;7.40;;;8.10;49.00;;;;;;5052014;28;20041;-73
2022/03/12 08:18:56;;;;;;;12.45;6.68;;;8.10;49.10;;;;;;5052009;28;20154;-73
2022/03/12 08:21:22;;;;;;;12.65;7.28;;;8.40;49.10;;;;;;5052213;28;20056;-75
2022/03/12 08:23:49;;;;;;;10.32;6.43;;;8.50;48.60;;;;;;5051884;28;20040;-75
2022/03/12 08:26:15;;;;;;;9.95;6.55;;;8.50;48.40;;;;;;5050459;28;20045;-75
2022/03/12 08:28:41;;;;;;;11.20;6.93;;;8.50;48.40;;;;;;5051974;28;20040;-75
2022/03/12 08:31:07;;;;;;;11.25;6.68;;;8.60;48.40;;;;;;5051911;28;20040;-75
2022/03/12 08:33:34;;;;;;;11.80;7.75;;;8.60;48.40;;;;;;5033906;28;20604;-75
2022/03/12 08:36:03;;;;;;;10.25;7.05;;;8.60;48.40;;;;;;5050230;28;20517;-75
2022/03/12 08:38:28;;;;;;;12.82;7.05;;;8.70;48.50;;;;;;5051990;28;20106;-75
2022/03/12 08:40:54;;;;;;;11.02;6.65;;;8.80;48.50;;;;;;5050471;28;20044;-75
2022/03/12 08:43:21;;;;;;;12.23;7.18;;;8.90;47.90;;;;;;5050376;28;20043;-75
2022/03/12 08:45:48;;;;;;;11.93;6.78;;;9.00;47.80;;;;;;5033890;28;20124;-75
2022/03/12 08:48:15;;;;;;;10.23;7.55;;;9.20;47.60;;;;;;5049843;28;20049;-74
2022/03/12 08:50:40;;;;;;;12.75;8.15;;;9.30;47.90;;;;;;5033627;28;20087;-74
2022/03/12 08:53:06;;;;;;;12.10;7.07;;;9.50;47.70;;;;;;5050966;28;20061;-75
2022/03/12 08:55:31;;;;;;;11.80;8.00;;;9.60;47.10;;;;;;5051457;28;20033;-75
2022/03/12 08:57:57;;;;;;;14.73;7.47;;;9.70;46.80;;;;;;5051594;28;20056;-75
2022/03/12 09:00:24;;;;;;;10.75;7.18;;;9.80;46.60;;;;;;5051621;28;20056;-75
2022/03/12 09:02:50;;;;;;;13.63;7.20;;;9.80;46.70;;;;;;5051274;28;20037;-75
2022/03/12 09:05:16;;;;;;;15.43;7.93;;;9.90;47.10;;;;;;5050106;28;20037;-75
2022/03/12 09:07:44;;;;;;;10.70;7.63;;;10.00;47.20;;;;;;5049970;28;20099;-75
2022/03/12 09:10:11;;;;;;;13.38;8.82;;;10.10;47.50;;;;;;5050582;28;20120;-76
2022/03/12 09:12:41;;;;;;;14.63;7.10;;;10.20;47.50;;;;;;5050688;28;20056;-75
2022/03/12 09:15:08;;;;;;;14.00;7.28;;;10.20;48.30;;;;;;5047895;28;20128;-76
2022/03/12 09:17:34;;;;;;;11.48;8.07;;;10.30;47.20;;;;;;5049584;28;20036;-76
2022/03/12 09:20:00;;;;;;;14.07;7.55;;;10.30;47.60;;;;;;5054492;28;20033;-76
2022/03/12 09:22:26;;;;;;;12.02;7.22;;;10.30;47.50;;;;;;5053591;28;20094;-77
2022/03/12 09:24:52;;;;;;;11.75;7.35;;;10.30;47.70;;;;;;5053709;28;20140;-76
2022/03/12 09:27:17;;;;;;;11.80;7.80;;;10.30;47.60;;;;;;5053197;28;20044;-75
2022/03/12 09:29:43;;;;;;;11.82;7.53;;;10.30;48.10;;;;;;5053863;28;20035;-74
2022/03/12 09:32:09;;;;;;;11.80;7.43;;;10.40;48.40;;;;;;5054731;28;20076;-75
2022/03/12 09:34:35;;;;;;;12.98;7.93;;;10.50;48.60;;;;;;5055254;28;20064;-76
2022/03/12 09:37:05;;;;;;;10.05;7.25;;;10.50;48.70;;;;;;5055266;28;20123;-76
2022/03/12 09:39:30;;;;;;;12.02;8.23;;;10.50;48.60;;;;;;5053893;28;20208;-77
2022/03/12 09:41:57;;;;;;;10.98;6.63;;;10.70;49.40;;;;;;5053341;28;20108;-76
2022/03/12 09:44:22;;;;;;;12.35;7.53;;;10.80;49.30;;;;;;5053305;28;20512;-76
2022/03/12 09:46:48;;;;;;;18.63;7.60;;;10.90;49.30;;;;;;5052914;28;20045;-76
2022/03/12 09:49:14;;;;;;;10.27;7.30;;;10.90;49.60;;;;;;5053576;28;20375;-76
2022/03/12 09:51:42;;;;;;;11.82;8.43;;;11.10;50.00;;;;;;5053841;28;20032;-75
2022/03/12 09:54:07;;;;;;;13.93;7.90;;;11.10;49.80;;;;;;5053532;28;20387;-76
2022/03/12 09:56:33;;;;;;;10.95;8.05;;;11.30;50.20;;;;;;5052937;28;20036;-73
2022/03/12 09:58:58;;;;;;;10.75;7.53;;;11.30;50.40;;;;;;5053551;28;20029;-75
2022/03/12 10:01:24;;;;;;;13.25;7.82;;;11.40;50.90;;;;;;5058367;28;20116;-76
2022/03/12 10:03:50;;;;;;;12.45;7.90;;;11.40;51.20;;;;;;5055565;28;20029;-76
2022/03/12 10:06:15;;;;;;;12.55;8.68;;;11.60;51.60;;;;;;5051944;28;20033;-75
2022/03/12 10:08:45;;;;;;;13.57;7.68;;;11.70;51.60;;;;;;5034512;28;20045;-75
2022/03/12 10:11:11;;;;;;;13.15;8.32;;;11.80;52.30;;;;;;5051999;28;20032;-75
2022/03/12 10:13:37;;;;;;;11.13;7.72;;;11.90;53.10;;;;;;5053019;28;21379;-76
2022/03/12 10:16:03;;;;;;;12.32;8.05;;;11.90;53.40;;;;;;5048853;28;20029;-75
2022/03/12 10:18:29;;;;;;;10.10;7.30;;;12.00;54.10;;;;;;5052748;28;20083;-77
2022/03/12 10:20:57;;;;;;;11.98;8.90;;;12.10;54.20;;;;;;5053995;28;20490;-75
2022/03/12 10:23:23;;;;;;;9.73;7.45;;;12.20;54.70;;;;;;5053831;23;20606;-68
2022/03/12 10:25:48;;;;;;;12.27;8.07;;;12.30;55.20;;;;;;5033230;28;20102;-70
2022/03/12 10:28:14;;;;;;;10.40;7.82;;;12.40;55.60;;;;;;5034088;28;20124;-69
2022/03/12 10:30:40;;;;;;;11.80;7.75;;;12.40;55.70;;;;;;5033332;28;20411;-69
2022/03/12 10:33:05;;;;;;;10.80;8.05;;;12.50;55.80;;;;;;5034155;28;20038;-68
2022/03/12 10:35:37;;;;;;;11.60;8.10;;;12.50;56.00;;;;;;5033974;28;20033;-69
2022/03/12 10:38:10;;;;;;;11.93;7.95;;;12.60;57.30;;;;;;5034029;28;20041;-68
2022/03/12 10:40:36;;;;;;;11.60;8.10;;;12.70;58.10;;;;;;5034152;28;20045;-70
2022/03/12 10:43:13;;;;;;;10.52;7.38;;;12.60;58.00;;;;;;5033216;28;20468;-70
2022/03/12 10:45:43;;;;;;;12.05;8.07;;;12.70;59.30;;;;;;4999549;28;20136;-70
2022/03/12 10:48:09;;;;;;;9.95;7.95;;;12.80;59.30;;;;;;5033820;28;20100;-71
2022/03/12 10:50:41;;;;;;;11.23;8.55;;;12.80;59.50;;;;;;5033822;28;20037;-70
2022/03/12 10:53:08;;;;;;;13.75;8.93;;;12.80;59.50;;;;;;5015933;28;20048;-70
2022/03/12 10:55:37;;;;;;;12.50;8.10;;;12.90;60.60;;;;;;5033351;28;20037;-71
2022/03/12 10:58:09;;;;;;;18.38;8.70;;;12.90;60.90;;;;;;5033931;28;20091;-71
2022/03/12 11:00:40;;;;;;;13.30;8.65;;;13.00;60.50;;;;;;5033467;28;20056;-71
2022/03/12 11:03:13;;;;;;;15.13;8.68;;;13.10;60.90;;;;;;5033392;28;20033;-70
2022/03/12 11:05:42;;;;;;;11.30;8.95;;;13.10;61.80;;;;;;5033234;28;20034;-70
2022/03/12 11:08:16;;;;;;;15.25;8.35;;;13.10;61.80;;;;;;5015652;28;20042;-71
2022/03/12 11:10:54;;;;;;;12.20;8.10;;;13.10;62.10;;;;;;5032182;28;20526;-70
2022/03/12 11:13:40;;;;;;;12.48;7.97;;;13.20;63.00;;;;;;5033445;28;20037;-71
2022/03/12 11:16:13;;;;;;;11.65;8.27;;;13.20;63.60;;;;;;5031910;28;20124;-70
2022/03/12 11:18:51;;;;;;;11.82;8.52;;;13.30;63.10;;;;;;5014775;28;20057;-70
2022/03/12 11:21:39;;;;;;;13.43;8.07;;;13.40;63.70;;;;;;5032900;28;20049;-70
2022/03/12 11:24:08;;;;;;;12.73;8.75;;;13.40;63.70;;;;;;5032957;28;20041;-71
2022/03/12 11:26:54;;;;;;;12.90;8.93;;;13.30;63.30;;;;;;5035383;28;20036;-71
2022/03/12 11:29:25;;;;;;;11.45;9.13;;;13.30;63.40;;;;;;5031928;28;20037;-71
2022/03/12 11:31:56;;;;;;;13.52;9.15;;;13.40;63.90;;;;;;5041354;28;20099;-70
2022/03/12 11:34:33;;;;;;;16.30;8.85;;;13.40;64.10;;;;;;5015199;28;20033;-71
2022/03/12 11:37:01;;;;;;;15.70;9.10;;;13.50;63.80;;;;;;5041395;28;20512;-71
2022/03/12 11:39:31;;;;;;;15.75;9.60;;;13.50;63.10;;;;;;5034935;28;20052;-71
2022/03/12 11:42:11;;;;;;;14.13;8.80;;;13.50;62.90;;;;;;5052308;28;20048;-71
2022/03/12 11:44:52;;;;;;;11.32;8.15;;;13.50;62.40;;;;;;5035474;28;20041;-69
2022/03/12 11:47:27;;;;;;;15.32;9.43;;;13.50;62.60;;;;;;5052147;28;20037;-69
2022/03/12 11:49:55;;;;;;;14.50;9.38;;;13.60;63.50;;;;;;5052270;28;20039;-69
2022/03/12 11:52:21;;;;;;;13.70;8.88;;;13.50;63.20;;;;;;5052736;28;20044;-69
2022/03/12 11:54:49;;;;;;;12.90;9.02;;;13.50;63.40;;;;;;5052695;28;20047;-69
2022/03/12 11:57:34;;;;;;;23.27;9.30;;;13.50;63.60;;;;;;5052251;28;20037;-69
2022/03/12 12:00:02;;;;;;;15.25;8.40;;;13.50;64.90;;;;;;5052425;28;20051;-69
2022/03/12 12:02:35;;;;;;;15.80;8.68;;;13.60;64.50;;;;;;5044164;28;20120;-69
2022/03/12 12:05:12;;;;;;;15.02;7.80;;;13.60;64.00;;;;;;5150642;27;20444;-71
2022/03/12 12:07:41;;;;;;;10.02;8.30;;;13.60;65.80;;;;;;5150582;27;20035;-71
2022/03/12 12:10:09;;;;;;;10.98;7.72;;;13.50;64.80;;;;;;5150556;27;20034;-71
2022/03/12 12:12:35;;;;;;;10.60;8.07;;;13.60;64.80;;;;;;5150480;27;20035;-71
2022/03/12 12:15:06;;;;;;;8.93;7.03;;;13.60;64.90;;;;;;5149318;27;20095;-71
2022/03/12 12:17:32;;;;;;;28.00;9.60;;;13.70;65.30;;;;;;5150261;27;20503;-71
2022/03/12 12:19:59;;;;;;;48.90;11.15;;;13.70;65.30;;;;;;5149539;27;20062;-70
2022/03/12 12:22:25;;;;;;;11.68;8.23;;;13.70;65.30;;;;;;5150675;27;20108;-70
2022/03/12 12:24:56;;;;;;;11.00;8.68;;;13.60;65.30;;;;;;5150357;27;20114;-70
2022/03/12 12:27:23;;;;;;;15.00;8.63;;;13.70;65.50;;;;;;5149895;27;20043;-71
2022/03/12 12:29:52;;;;;;;12.52;8.68;;;13.80;66.20;;;;;;5147371;27;20522;-70
2022/03/12 12:32:46;;;;;;;11.73;8.00;;;14.00;66.00;;;;;;5128236;28;20039;-70
2022/03/12 12:35:20;;;;;;;12.30;7.95;;;14.10;65.90;;;;;;5110976;28;20039;-70
2022/03/12 12:37:47;;;;;;;;;;;14.30;66.40;;;;;;5137731;27;20043;-70
2022/03/12 12:40:24;;;;;;;15.63;7.40;;;14.20;65.80;;;;;;5136233;27;20437;-70
2022/03/12 12:42:51;;;;;;;11.73;7.82;;;14.30;66.40;;;;;;5129140;27;20554;-70
2022/03/12 12:45:22;;;;;;;11.73;7.10;;;14.30;66.60;;;;;;5129054;27;20070;-70
2022/03/12 12:48:06;;;;;;;9.98;6.43;;;14.40;66.50;;;;;;5129249;27;20031;-70